createdAt,value
2019-04-03T00:04:24.006Z,8.19
2019-04-03T00:09:42.571Z,8.14
2019-04-03T00:15:01.113Z,8.12
2019-04-03T00:20:19.659Z,8.03
2019-04-03T00:25:38.351Z,7.92
2019-04-03T00:30:57.012Z,7.82
2019-04-03T00:36:15.594Z,7.76
2019-04-03T00:41:34.125Z,7.77
2019-04-03T00:46:53.858Z,7.73
2019-04-03T00:52:13.220Z,7.67
2019-04-03T00:57:31.872Z,7.63
2019-04-03T01:02:50.488Z,7.58
2019-04-03T01:08:09.022Z,7.58
2019-04-03T01:13:27.645Z,7.58
2019-04-03T01:18:46.342Z,7.54
2019-04-03T01:24:07.542Z,7.50
2019-04-03T01:29:25.299Z,7.49
2019-04-03T01:34:43.874Z,7.44
2019-04-03T01:40:02.515Z,7.41
2019-04-03T01:45:21.058Z,7.31
2019-04-03T01:50:39.619Z,7.29
2019-04-03T01:55:58.353Z,7.21
2019-04-03T02:01:16.842Z,7.12
2019-04-03T02:06:35.396Z,7.03
2019-04-03T02:11:53.928Z,6.94
2019-04-03T02:17:12.553Z,6.93
2019-04-03T02:22:31.070Z,6.90
2019-04-03T02:27:49.616Z,6.86
2019-04-03T02:33:08.266Z,6.80
2019-04-03T02:38:26.781Z,6.80
2019-04-03T02:43:46.713Z,6.81
2019-04-03T02:49:09.366Z,6.77
2019-04-03T02:54:28.802Z,6.78
2019-04-03T02:59:47.482Z,6.73
2019-04-03T03:05:07.115Z,6.67
2019-04-03T03:10:25.935Z,6.67
2019-04-03T03:15:45.352Z,6.64
2019-04-03T03:21:05.262Z,6.58
2019-04-03T03:26:23.881Z,6.59
2019-04-03T03:32:04.844Z,6.49
2019-04-03T03:37:03.989Z,6.45
2019-04-03T03:42:23.854Z,6.42
2019-04-03T03:47:42.809Z,6.41
2019-04-03T03:53:01.818Z,6.39
2019-04-03T03:58:21.169Z,6.33
2019-04-03T04:03:41.736Z,6.31
2019-04-03T04:09:01.451Z,6.33
2019-04-03T04:14:22.821Z,6.27
2019-04-03T04:19:40.608Z,6.24
2019-04-03T04:25:02.451Z,6.18
2019-04-03T04:30:21.188Z,6.15
2019-04-03T04:35:40.189Z,6.16
2019-04-03T04:41:01.385Z,6.13
2019-04-03T04:46:19.255Z,6.12
2019-04-03T04:51:38.039Z,6.06
2019-04-03T04:56:56.583Z,6.02
2019-04-03T05:02:15.123Z,5.99
2019-04-03T05:07:33.591Z,6.02
2019-04-03T05:12:52.149Z,5.97
2019-04-03T05:18:11.076Z,5.99
2019-04-03T05:23:29.937Z,6.02
2019-04-03T05:28:55.594Z,6.02
2019-04-03T05:34:08.982Z,6.05
2019-04-03T05:39:27.861Z,6.08
2019-04-03T05:44:46.752Z,6.17
2019-04-03T05:50:08.949Z,6.27
2019-04-03T05:55:27.585Z,6.28
2019-04-03T06:00:46.194Z,6.26
2019-04-03T06:06:05.084Z,6.20
2019-04-03T06:11:23.595Z,6.22
2019-04-03T06:16:42.257Z,6.15
2019-04-03T06:22:00.737Z,6.07
2019-04-03T06:27:19.991Z,6.09
2019-04-03T06:32:38.599Z,6.12
2019-04-03T06:37:57.223Z,6.14
2019-04-03T06:43:17.301Z,6.16
2019-04-03T06:48:37.173Z,6.18
2019-04-03T06:53:58.827Z,6.13
2019-04-03T06:59:17.019Z,6.07
2019-04-03T07:04:37.505Z,6.00
2019-04-03T07:09:56.217Z,6.01
2019-04-03T07:15:14.872Z,6.04
2019-04-03T07:20:33.408Z,6.12
2019-04-03T07:25:52.234Z,6.26
2019-04-03T07:31:10.945Z,6.22
2019-04-03T07:36:29.533Z,6.35
2019-04-03T07:41:48.499Z,6.48
2019-04-03T07:47:07.082Z,6.62
2019-04-03T07:52:25.930Z,6.56
2019-04-03T07:57:44.438Z,6.47
2019-04-03T08:03:03.368Z,6.60
2019-04-03T08:08:22.194Z,6.92
2019-04-03T08:13:40.736Z,7.29
2019-04-03T08:18:59.319Z,7.23
2019-04-03T08:24:17.850Z,7.05
2019-04-03T08:29:38.515Z,6.83
2019-04-03T08:34:56.733Z,6.90
2019-04-03T08:40:19.646Z,6.47
2019-04-03T08:45:38.425Z,6.72
2019-04-03T08:50:58.482Z,6.65
2019-04-03T08:56:17.983Z,6.72
2019-04-03T09:01:37.282Z,7.04
2019-04-03T09:06:55.942Z,6.82
2019-04-03T09:12:14.501Z,6.72
2019-04-03T09:17:34.130Z,6.78
2019-04-03T09:22:54.394Z,6.84
2019-04-03T09:28:13.102Z,6.82
2019-04-03T09:33:31.717Z,7.07
2019-04-03T09:38:50.513Z,7.53
2019-04-03T09:44:09.169Z,7.93
2019-04-03T09:49:27.796Z,8.55
2019-04-03T09:54:46.788Z,8.58
2019-04-03T10:00:11.349Z,8.44
2019-04-03T10:05:30.575Z,8.42
2019-04-03T10:10:49.409Z,8.26
2019-04-03T10:16:08.150Z,8.38
2019-04-03T10:21:26.806Z,8.19
2019-04-03T10:26:45.448Z,8.53
2019-04-03T10:32:04.187Z,8.75
2019-04-03T10:37:22.795Z,9.27
2019-04-03T10:42:41.415Z,10.02
2019-04-03T10:48:00.149Z,10.25
2019-04-03T10:53:20.020Z,10.06
2019-04-03T10:58:42.236Z,10.50
2019-04-03T11:03:59.643Z,9.62
2019-04-03T11:09:18.201Z,9.45
2019-04-03T11:14:39.034Z,9.78
2019-04-03T11:19:57.414Z,9.61
2019-04-03T11:25:16.209Z,10.06
2019-04-03T11:30:35.052Z,9.94
2019-04-03T11:35:54.137Z,10.11
2019-04-03T11:41:18.153Z,10.43
2019-04-03T11:46:33.482Z,11.21
2019-04-03T11:51:52.319Z,10.80
2019-04-03T11:57:10.927Z,11.25
2019-04-03T12:02:29.826Z,11.46
2019-04-03T12:07:48.756Z,10.87
2019-04-03T12:13:07.540Z,10.69
2019-04-03T12:18:26.233Z,11.06
2019-04-03T12:23:45.328Z,11.50
2019-04-03T12:29:06.896Z,11.39
2019-04-03T12:34:24.491Z,11.03
2019-04-03T12:39:43.044Z,10.32
2019-04-03T12:45:01.948Z,9.80
2019-04-03T12:50:20.633Z,9.49
2019-04-03T12:55:41.682Z,9.74
2019-04-03T13:00:59.619Z,9.67
2019-04-03T13:06:18.269Z,9.72
2019-04-03T13:11:36.901Z,10.01
2019-04-03T13:16:55.620Z,10.09
2019-04-03T13:22:14.519Z,10.41
2019-04-03T13:27:33.394Z,10.53
2019-04-03T13:32:59.828Z,10.87
2019-04-03T13:38:12.653Z,11.17
2019-04-03T13:43:31.497Z,10.96
2019-04-03T13:48:50.488Z,10.96
2019-04-03T13:54:09.478Z,11.33
2019-04-03T13:59:28.242Z,11.08
2019-04-03T14:04:48.952Z,11.27
2019-04-03T14:10:09.083Z,10.90
2019-04-03T14:15:27.686Z,10.81
2019-04-03T14:20:46.262Z,10.73
2019-04-03T14:26:07.780Z,10.76
2019-04-03T14:31:34.785Z,10.72
2019-04-03T14:36:45.722Z,11.06
2019-04-03T14:42:07.003Z,10.93
2019-04-03T14:47:27.146Z,10.74
2019-04-03T14:52:47.651Z,10.77
2019-04-03T14:58:05.489Z,10.64
2019-04-03T15:03:24.148Z,10.47
2019-04-03T15:08:42.774Z,10.19
2019-04-03T15:14:01.993Z,10.26
2019-04-03T15:19:20.661Z,9.97
2019-04-03T15:24:42.331Z,10.22
2019-04-03T15:30:00.019Z,10.19
2019-04-03T15:35:18.797Z,10.26
2019-04-03T15:40:37.542Z,9.92
2019-04-03T15:45:58.033Z,9.93
2019-04-03T15:51:16.935Z,9.73
2019-04-03T15:56:35.551Z,9.64
2019-04-03T16:01:54.894Z,9.59
2019-04-03T16:07:13.967Z,9.35
2019-04-03T16:12:35.309Z,9.26
2019-04-03T16:17:52.942Z,9.28
2019-04-03T16:23:11.681Z,8.94
2019-04-03T16:28:33.355Z,9.08
2019-04-03T16:33:50.650Z,8.75
2019-04-03T16:39:09.282Z,8.43
2019-04-03T16:44:28.725Z,8.24
2019-04-03T16:49:47.545Z,8.11
2019-04-03T16:55:08.276Z,8.00
2019-04-03T17:00:26.826Z,7.92
2019-04-03T17:05:45.972Z,7.85
2019-04-03T17:11:04.650Z,7.75
2019-04-03T17:16:24.050Z,7.45
2019-04-03T17:21:42.690Z,7.35
2019-04-03T17:27:01.238Z,7.25
2019-04-03T17:32:19.868Z,7.19
2019-04-03T17:37:38.598Z,7.08
2019-04-03T17:42:57.466Z,6.89
2019-04-03T17:48:16.144Z,6.64
2019-04-03T17:53:36.524Z,6.44
2019-04-03T17:58:55.444Z,6.32
2019-04-03T18:04:14.124Z,6.35
2019-04-03T18:09:32.756Z,6.34
2019-04-03T18:14:51.467Z,6.26
2019-04-03T18:20:12.720Z,6.31
2019-04-03T18:25:31.575Z,6.30
2019-04-03T18:30:50.313Z,6.33
2019-04-03T18:36:09.297Z,6.32
2019-04-03T18:41:28.100Z,6.36
2019-04-03T18:46:46.722Z,6.24
2019-04-03T18:52:07.719Z,6.24
2019-04-03T18:57:25.964Z,6.18
2019-04-03T19:02:44.617Z,6.14
2019-04-03T19:08:13.083Z,6.09
2019-04-03T19:13:24.061Z,6.11
2019-04-03T19:18:42.696Z,6.08
2019-04-03T19:24:01.315Z,6.04
2019-04-03T19:29:19.888Z,6.04
2019-04-03T19:34:42.186Z,6.00
2019-04-03T19:40:01.681Z,5.98
2019-04-03T19:45:21.405Z,5.96
2019-04-03T19:50:40.168Z,5.95
2019-04-03T19:55:58.735Z,5.89
2019-04-03T20:01:17.370Z,5.84
2019-04-03T20:06:35.935Z,5.82
2019-04-03T20:11:54.746Z,5.91
2019-04-03T20:17:14.235Z,5.91
2019-04-03T20:22:32.839Z,5.92
2019-04-03T20:27:52.317Z,5.90
2019-04-03T20:33:11.711Z,5.91
2019-04-03T20:38:32.152Z,5.91
2019-04-03T20:43:50.635Z,5.82
2019-04-03T20:49:09.183Z,5.83
2019-04-03T20:54:27.724Z,5.75
2019-04-03T20:59:58.740Z,5.68
2019-04-03T21:05:07.891Z,5.66
2019-04-03T21:10:26.590Z,5.55
2019-04-03T21:15:45.992Z,5.52
2019-04-03T21:21:04.675Z,5.51
2019-04-03T21:26:23.395Z,5.45
2019-04-03T21:31:42.037Z,5.45
2019-04-03T21:37:00.653Z,5.32
2019-04-03T21:42:19.959Z,5.28
2019-04-03T21:47:38.502Z,5.28
2019-04-03T21:52:57.069Z,5.21
2019-04-03T21:58:15.655Z,5.25
2019-04-03T22:03:34.381Z,5.21
2019-04-03T22:08:53.000Z,5.25
2019-04-03T22:14:11.772Z,5.21
2019-04-03T22:19:30.648Z,5.32
2019-04-03T22:24:49.267Z,5.27
2019-04-03T22:30:07.893Z,5.26
2019-04-03T22:35:27.940Z,5.17
2019-04-03T22:40:47.024Z,5.25
2019-04-03T22:46:05.644Z,5.31
2019-04-03T22:51:24.196Z,5.29
2019-04-03T22:56:42.814Z,5.27
2019-04-03T23:02:01.554Z,5.28
2019-04-03T23:07:20.879Z,5.22
2019-04-03T23:12:39.849Z,5.16
2019-04-03T23:17:58.398Z,5.12
2019-04-03T23:23:17.019Z,5.10
2019-04-03T23:28:35.586Z,5.07
2019-04-03T23:33:54.203Z,5.04
2019-04-03T23:39:12.818Z,4.86
2019-04-03T23:44:31.366Z,4.82
2019-04-03T23:49:51.091Z,4.73
2019-04-03T23:55:10.577Z,4.54
